Time;durP1;ratioP1;P1;durP2;ratioP2;P2;SDS_P1;SDS_P2;PMS_P1;PMS_P2;Temp;Humidity;BMP_temperature;BMP_pressure;BME280_temperature;BME280_humidity;BME280_pressure;Samples;Min_cycle;Max_cycle;Signal;HPM_P1;HPM_P2
2023/12/20 00:00:35;;;;;;;;;;;;;;;-144.99;100.00;52704.94;5091077;28;19993;-67
2023/12/20 00:03:02;;;;;;;;;;;;;;;-144.99;100.00;52656.00;5090386;28;19978;-68
2023/12/20 00:05:28;;;;;;;;;;;;;;;-144.99;100.00;52729.38;4737562;28;10000549;-67
2023/12/20 00:07:55;;;;;;;;;;;;;;;-144.99;100.00;52727.34;5089361;28;20019;-67
2023/12/20 00:10:21;;;;;;;;;;;;;;;-144.99;100.00;52651.94;5090851;28;19990;-68
2023/12/20 00:12:48;;;;;;;;;;;;;;;-144.99;100.00;52692.69;5090804;28;19928;-73
2023/12/20 00:15:16;;;;;;;;;;;;;;;-144.99;100.00;52702.88;5090972;28;20348;-74
2023/12/20 00:17:42;;;;;;;;;;;;;;;-144.99;100.00;52725.31;5098492;28;19970;-73
2023/12/20 00:20:09;;;;;;;;;;;;;;;-144.99;100.00;52678.44;5093252;28;19924;-73
2023/12/20 00:22:36;;;;;;;;;;;;;;;-144.99;100.00;52721.22;5092728;28;19935;-72
2023/12/20 00:25:02;;;;;;;;;;;;;;;-144.99;100.00;52676.38;5092994;28;19981;-73
2023/12/20 00:27:29;;;;;;;;;;;;;;;-144.99;100.00;52717.16;5091370;28;19924;-73
2023/12/20 00:29:56;;;;;;;;;;;;;;;-144.99;100.00;52704.94;5088765;28;19928;-73
2023/12/20 00:32:24;;;;;;;;;;;;;;;-144.99;100.00;52678.44;5093231;28;19969;-73
2023/12/20 00:34:50;;;;;;;;;;;;;;;-144.99;100.00;52704.94;5092685;28;19928;-72
2023/12/20 00:37:17;;;;;;;;;;;;;;;-144.99;100.00;52702.88;5090640;28;19924;-68
2023/12/20 00:39:43;;;;;;;;;;;;;;;-144.99;100.00;52692.69;5093083;28;19971;-69
2023/12/20 00:42:10;;;;;;;;;;;;;;;-144.99;100.00;52664.16;5098992;28;19932;-65
2023/12/20 00:44:36;;;;;;;;;;;;;;;-144.99;100.00;52704.94;5107816;28;19924;-66
2023/12/20 00:47:03;;;;;;;;;;;;;;;-144.99;100.00;52647.84;5106112;28;19924;-66
2023/12/20 00:49:30;;;;;;;;;;;;;;;-144.99;100.00;52647.84;5100400;28;19963;-66
2023/12/20 00:51:57;;;;;;;;;;;;;;;-144.99;100.00;52680.47;5094591;28;20347;-66
2023/12/20 00:54:23;;;;;;;;;;;;;;;-144.99;100.00;52700.84;5092573;28;19969;-66
2023/12/20 00:56:50;;;;;;;;;;;;;;;-144.99;100.00;52706.97;5085844;28;20386;-76
2023/12/20 00:59:17;;;;;;;;;;;;;;;-144.99;100.00;52713.09;5092872;28;19967;-71
2023/12/20 01:01:44;;;;;;;;;;;;;;;-144.99;100.00;52704.94;5090550;28;19924;-71
2023/12/20 01:04:10;;;;;;;;;;;;;;;-144.99;100.00;52680.47;5091639;28;20003;-69
2023/12/20 01:06:38;;;;;;;;;;;;;;;-144.99;100.00;52688.63;5091935;28;19928;-69
2023/12/20 01:09:04;;;;;;;;;;;;;;;-144.99;100.00;52745.69;5091648;28;19928;-70
2023/12/20 01:11:31;;;;;;;;;;;;;;;-144.99;100.00;52704.94;5091939;28;20022;-69
2023/12/20 01:13:57;;;;;;;;;;;;;;;-144.99;100.00;52700.84;5090372;28;19924;-69
2023/12/20 01:16:24;;;;;;;;;;;;;;;-144.99;100.00;52713.09;5093734;28;20470;-70
2023/12/20 01:18:50;;;;;;;;;;;;;;;-144.99;100.00;52729.38;5094024;28;19960;-71
2023/12/20 01:21:17;;;;;;;;;;;;;;;-144.99;100.00;52680.47;5092337;28;19971;-71
2023/12/20 01:23:45;;;;;;;;;;;;;;;-144.99;100.00;52668.22;5091009;28;19931;-71
2023/12/20 01:26:12;;;;;;;;;;;;;;;-144.99;100.00;52682.50;5092983;28;20007;-69
2023/12/20 01:28:38;;;;;;;;;;;;;;;-144.99;100.00;52713.09;5091911;28;20288;-70
2023/12/20 01:31:05;;;;;;;;;;;;;;;-144.99;100.00;52721.22;5090402;28;19928;-67
2023/12/20 01:33:31;;;;;;;;;;;;;;;-144.99;100.00;52700.84;5090589;28;19977;-66
2023/12/20 01:35:58;;;;;;;;;;;;;;;-144.99;100.00;52709.00;5091791;28;20374;-66
2023/12/20 01:38:24;;;;;;;;;;;;;;;-144.99;100.00;52721.22;5093294;28;20480;-66
2023/12/20 01:40:52;;;;;;;;;;;;;;;-144.99;100.00;52702.88;5089176;28;19924;-67
2023/12/20 01:43:19;;;;;;;;;;;;;;;-144.99;100.00;52709.00;5091566;28;19924;-67
2023/12/20 01:45:46;;;;;;;;;;;;;;;-144.99;100.00;52719.19;5090836;28;19928;-67
2023/12/20 01:48:13;;;;;;;;;;;;;;;-144.99;100.00;52725.31;5091664;28;19981;-66
2023/12/20 01:50:40;;;;;;;;;;;;;;;-144.99;100.00;52684.53;5090678;28;19931;-66
2023/12/20 01:53:08;;;;;;;;;;;;;;;-144.99;100.00;52717.16;5091992;28;19928;-73
2023/12/20 01:55:36;;;;;;;;;;;;;;;-144.99;100.00;52717.16;5092422;28;19963;-73
2023/12/20 01:58:04;;;;;;;;;;;;;;;-144.99;100.00;52733.47;5091440;28;20373;-73
2023/12/20 02:00:31;;;;;;;;;;;;;;;-144.99;100.00;52684.53;5090958;28;19967;-73
2023/12/20 02:03:01;;;;;;;;;;;;;;;-144.99;100.00;52700.84;5092920;28;20397;-73
2023/12/20 02:05:28;;;;;;;;;;;;;;;-144.99;100.00;52696.78;5091498;28;19960;-74
2023/12/20 02:07:54;;;;;;;;;;;;;;;-144.99;100.00;52676.38;5091334;28;20350;-73
2023/12/20 02:10:21;;;;;;;;;;;;;;;-144.99;100.00;52749.78;5091825;28;20390;-73
2023/12/20 02:12:47;;;;;;;;;;;;;;;-144.99;100.00;52725.31;5090183;28;19924;-73
2023/12/20 02:15:15;;;;;;;;;;;;;;;-144.99;100.00;52700.84;5090956;28;20382;-73
2023/12/20 02:17:42;;;;;;;;;;;;;;;-144.99;100.00;52721.22;5097406;28;20405;-74
2023/12/20 02:20:09;;;;;;;;;;;;;;;-144.99;100.00;52700.84;5100425;28;19928;-74
2023/12/20 02:22:37;;;;;;;;;;;;;;;-144.99;100.00;52692.69;5093388;28;19928;-74
2023/12/20 02:25:04;;;;;;;;;;;;;;;-144.99;100.00;52704.94;5091785;28;19928;-73
2023/12/20 02:27:30;;;;;;;;;;;;;;;-144.99;100.00;52725.31;5092135;28;19949;-72
2023/12/20 02:29:57;;;;;;;;;;;;;;;-144.99;100.00;52684.53;5091054;28;19924;-72
2023/12/20 02:32:25;;;;;;;;;;;;;;;-144.99;100.00;52717.16;5102319;28;19924;-73
2023/12/20 02:34:52;;;;;;;;;;;;;;;-144.99;100.00;52690.66;5111203;28;20003;-73
2023/12/20 02:37:18;;;;;;;;;;;;;;;-144.99;100.00;52688.63;5110846;28;19924;-73
2023/12/20 02:39:48;;;;;;;;;;;;;;;-144.99;100.00;52700.84;5097332;28;20465;-73
2023/12/20 02:42:15;;;;;;;;;;;;;;;-144.99;100.00;52729.38;5091600;28;20008;-73
2023/12/20 02:44:41;;;;;;;;;;;;;;;-144.99;100.00;52721.22;5089640;28;19983;-73
2023/12/20 02:47:08;;;;;;;;;;;;;;;-144.99;100.00;52674.34;5093271;28;19928;-74
2023/12/20 02:49:34;;;;;;;;;;;;;;;-144.99;100.00;52725.31;5107188;28;19936;-77
2023/12/20 02:52:01;;;;;;;;;;;;;;;-144.99;100.00;52668.22;5091728;28;20381;-77
2023/12/20 02:54:27;;;;;;;;;;;;;;;-144.99;100.00;52713.09;5080873;28;19970;-77
2023/12/20 02:56:55;;;;;;;;;;;;;;;-144.99;100.00;52709.00;5094628;28;19949;-79
2023/12/20 02:59:22;;;;;;;;;;;;;;;-144.99;100.00;52717.16;5102849;28;19986;-79
2023/12/20 03:01:48;;;;;;;;;;;;;;;-144.99;100.00;52664.16;5111437;22;19977;-66
2023/12/20 03:04:15;;;;;;;;;;;;;;;-144.99;100.00;52700.84;5109364;28;19951;-64
2023/12/20 03:06:41;;;;;;;;;;;;;;;-144.99;100.00;52696.78;5117712;27;19959;-70
2023/12/20 03:09:07;;;;;;;;;;;;;;;-144.99;100.00;52739.56;5129130;28;19924;-68
2023/12/20 03:11:34;;;;;;;;;;;;;;;-144.99;100.00;52706.97;5129105;28;20376;-68
2023/12/20 03:14:02;;;;;;;;;;;;;;;-144.99;100.00;52662.13;5119363;28;20377;-68
2023/12/20 03:16:28;;;;;;;;;;;;;;;-144.99;100.00;52680.47;5121231;27;19966;-67
2023/12/20 03:18:55;;;;;;;;;;;;;;;-144.99;100.00;52692.69;5125493;28;19996;-67
2023/12/20 03:21:21;;;;;;;;;;;;;;;-144.99;100.00;52713.09;5116452;27;20038;-69
2023/12/20 03:23:48;;;;;;;;;;;;;;;-144.99;100.00;52668.22;5116597;27;19923;-69
2023/12/20 03:26:14;;;;;;;;;;;;;;;-144.99;100.00;52715.13;5125633;27;20381;-67
2023/12/20 03:28:40;;;;;;;;;;;;;;;-144.99;100.00;52690.66;5121043;27;20014;-68
2023/12/20 03:31:10;;;;;;;;;;;;;;;-144.99;100.00;52684.53;5122025;27;20055;-71
2023/12/20 03:33:36;;;;;;;;;;;;;;;-144.99;100.00;52668.22;5121533;27;19966;-70
2023/12/20 03:36:03;;;;;;;;;;;;;;;-144.99;100.00;52717.16;5124845;27;20050;-70
2023/12/20 03:38:29;;;;;;;;;;;;;;;-144.99;100.00;52664.16;5123661;27;20384;-70
2023/12/20 03:40:56;;;;;;;;;;;;;;;-144.99;100.00;52676.38;5135306;27;20038;-70
2023/12/20 03:43:22;;;;;;;;;;;;;;;-144.99;100.00;52668.22;5125413;27;19980;-70
2023/12/20 03:45:49;;;;;;;;;;;;;;;-144.99;100.00;52676.38;5115908;27;19976;-71
2023/12/20 03:48:17;;;;;;;;;;;;;;;-144.99;100.00;52702.88;5127963;27;19931;-63
2023/12/20 03:50:43;;;;;;;;;;;;;;;-144.99;100.00;52709.00;5122961;27;19923;-63
2023/12/20 03:53:10;;;;;;;;;;;;;;;-144.99;100.00;52664.16;5123740;27;20741;-64
2023/12/20 03:55:36;;;;;;;;;;;;;;;-144.99;100.00;52709.00;5126350;27;19947;-65
2023/12/20 03:58:03;;;;;;;;;;;;;;;-144.99;100.00;52696.78;5120452;27;20017;-64
2023/12/20 04:00:29;;;;;;;;;;;;;;;-144.99;100.00;52680.47;5118548;27;20022;-65
2023/12/20 04:02:55;;;;;;;;;;;;;;;-144.99;100.00;52684.53;5131703;27;20046;-64
2023/12/20 04:05:23;;;;;;;;;;;;;;;-144.99;100.00;52680.47;5113773;27;19974;-63
2023/12/20 04:07:50;;;;;;;;;;;;;;;-144.99;100.00;52676.38;5130426;27;19972;-61
2023/12/20 04:10:16;;;;;;;;;;;;;;;-144.99;100.00;52717.16;5132759;27;19930;-62
2023/12/20 04:12:43;;;;;;;;;;;;;;;-144.99;100.00;52688.63;5122814;27;20040;-64
2023/12/20 04:15:11;;;;;;;;;;;;;;;-144.99;100.00;52700.84;5121229;27;19924;-62
2023/12/20 04:17:38;;;;;;;;;;;;;;;-144.99;100.00;52711.03;5127435;27;19980;-62
2023/12/20 04:20:05;;;;;;;;;;;;;;;-144.99;100.00;52723.28;5122171;27;19927;-61
2023/12/20 04:22:33;;;;;;;;;;;;;;;-144.99;100.00;52725.31;5115734;27;19928;-61
2023/12/20 04:24:59;;;;;;;;;;;;;;;-144.99;100.00;52676.38;5123863;27;20395;-64
2023/12/20 04:27:25;;;;;;;;;;;;;;;-144.99;100.00;52698.81;5122422;27;20329;-61
2023/12/20 04:29:52;;;;;;;;;;;;;;;-144.99;100.00;52696.78;5115001;27;20071;-66
2023/12/20 04:32:18;;;;;;;;;;;;;;;-144.99;100.00;52717.16;5123602;27;20007;-68
2023/12/20 04:34:45;;;;;;;;;;;;;;;-144.99;100.00;52696.78;5123969;27;20349;-68
2023/12/20 04:37:12;;;;;;;;;;;;;;;-144.99;100.00;52696.78;5122827;27;20388;-68
2023/12/20 04:39:41;;;;;;;;;;;;;;;-144.99;100.00;52692.69;5123074;27;19946;-68
2023/12/20 04:42:07;;;;;;;;;;;;;;;-144.99;100.00;52721.22;5120014;27;20031;-70
2023/12/20 04:44:34;;;;;;;;;;;;;;;-144.99;100.00;52711.03;5114714;27;19985;-68
2023/12/20 04:47:01;;;;;;;;;;;;;;;-144.99;100.00;52704.94;5127203;27;20002;-61
2023/12/20 04:49:27;;;;;;;;;;;;;;;-144.99;100.00;52694.72;5120080;27;19935;-62
2023/12/20 04:51:54;;;;;;;;;;;;;;;-144.99;100.00;52704.94;5120028;27;19927;-61
2023/12/20 04:54:20;;;;;;;;;;;;;;;-144.99;100.00;52700.84;5116681;27;19942;-62
2023/12/20 04:56:48;;;;;;;;;;;;;;;-144.99;100.00;52700.84;5134781;27;20404;-60
2023/12/20 04:59:14;;;;;;;;;;;;;;;-144.99;100.00;52719.19;5131497;27;19968;-61
2023/12/20 05:01:41;;;;;;;;;;;;;;;-144.99;100.00;52678.44;5132340;27;19959;-62
2023/12/20 05:04:07;;;;;;;;;;;;;;;-144.99;100.00;52717.16;5120878;27;19924;-60
2023/12/20 05:06:34;;;;;;;;;;;;;;;-144.99;100.00;52700.84;5120832;27;19953;-61
2023/12/20 05:09:00;;;;;;;;;;;;;;;-144.99;100.00;52694.72;5121345;27;19974;-60
2023/12/20 05:11:27;;;;;;;;;;;;;;;-144.99;100.00;52684.53;5131853;27;20023;-61
2023/12/20 05:13:55;;;;;;;;;;;;;;;-144.99;100.00;52704.94;5131194;27;19976;-61
2023/12/20 05:16:21;;;;;;;;;;;;;;;-144.99;100.00;52686.59;5122938;27;19980;-61
2023/12/20 05:18:49;;;;;;;;;;;;;;;-144.99;100.00;52668.22;5128323;27;19923;-61
2023/12/20 05:21:15;;;;;;;;;;;;;;;-144.99;100.00;52696.78;5130071;27;19967;-67
2023/12/20 05:23:42;;;;;;;;;;;;;;;-144.99;100.00;52676.38;5115198;27;19970;-67
2023/12/20 05:26:08;;;;;;;;;;;;;;;-144.99;100.00;52670.28;5113015;27;20003;-61
2023/12/20 05:28:35;;;;;;;;;;;;;;;-144.99;100.00;52684.53;5115800;27;19923;-67
2023/12/20 05:31:03;;;;;;;;;;;;;;;-144.99;100.00;52717.16;5121027;27;19927;-66
2023/12/20 05:33:29;;;;;;;;;;;;;;;-144.99;100.00;52688.63;5124386;27;20018;-67
2023/12/20 05:35:56;;;;;;;;;;;;;;;-144.99;100.00;52709.00;5123174;27;20014;-67
2023/12/20 05:38:22;;;;;;;;;;;;;;;-144.99;100.00;52694.72;5117910;27;20412;-67
2023/12/20 05:40:48;;;;;;;;;;;;;;;-144.99;100.00;52688.63;5113448;27;19932;-67
2023/12/20 05:43:15;;;;;;;;;;;;;;;-144.99;100.00;52717.16;5121504;27;20034;-67
2023/12/20 05:45:42;;;;;;;;;;;;;;;-144.99;100.00;52680.47;5130422;27;19955;-66
2023/12/20 05:48:09;;;;;;;;;;;;;;;-144.99;100.00;52688.63;5119638;27;20273;-67
2023/12/20 05:50:36;;;;;;;;;;;;;;;-144.99;100.00;52711.03;5110571;28;20397;-67
2023/12/20 05:53:03;;;;;;;;;;;;;;;-144.99;100.00;52668.22;5124341;27;19935;-67
2023/12/20 05:55:29;;;;;;;;;;;;;;;-144.99;100.00;52717.16;5130783;27;19968;-67
2023/12/20 05:57:56;;;;;;;;;;;;;;;-144.99;100.00;52704.94;5130335;27;20031;-67
2023/12/20 06:00:22;;;;;;;;;;;;;;;-144.99;100.00;52696.78;5126943;27;19991;-68
2023/12/20 06:02:48;;;;;;;;;;;;;;;-144.99;100.00;52709.00;5121743;27;19950;-66
2023/12/20 06:05:16;;;;;;;;;;;;;;;-144.99;100.00;52684.53;5123615;27;19967;-65
2023/12/20 06:07:44;;;;;;;;;;;;;;;-144.99;100.00;52733.47;5125557;27;19973;-64
2023/12/20 06:10:11;;;;;;;;;;;;;;;-144.99;100.00;52696.78;5127901;27;19935;-64
2023/12/20 06:12:37;;;;;;;;;;;;;;;-144.99;100.00;52696.78;5127302;27;20045;-64
2023/12/20 06:15:04;;;;;;;;;;;;;;;-144.99;100.00;52686.59;5128559;27;19924;-65
2023/12/20 06:17:32;;;;;;;;;;;;;;;-144.99;100.00;52680.47;5125161;27;19923;-68
2023/12/20 06:19:58;;;;;;;;;;;;;;;-144.99;100.00;52704.94;4415607;27;10000786;-69
2023/12/20 06:22:26;;;;;;;;;;;;;;;-144.99;100.00;52680.47;5116337;27;20364;-68
2023/12/20 06:24:52;;;;;;;;;;;;;;;-144.99;100.00;52674.34;5119974;27;20034;-68
2023/12/20 06:27:19;;;;;;;;;;;;;;;-144.99;100.00;52719.19;5114750;27;20130;-68
2023/12/20 06:29:45;;;;;;;;;;;;;;;-144.99;100.00;52717.16;5117940;27;20022;-68
2023/12/20 06:32:12;;;;;;;;;;;;;;;-144.99;100.00;52682.50;5118206;27;19927;-68
2023/12/20 06:34:39;;;;;;;;;;;;;;;-144.99;100.00;52704.94;5119225;27;19927;-68
2023/12/20 06:37:06;;;;;;;;;;;;;;;-144.99;100.00;52668.22;5116625;27;20474;-70
2023/12/20 06:39:34;;;;;;;;;;;;;;;-144.99;100.00;52717.16;5115800;27;20018;-69
2023/12/20 06:42:00;;;;;;;;;;;;;;;-144.99;100.00;52688.63;5114992;27;20409;-66
2023/12/20 06:44:27;;;;;;;;;;;;;;;-144.99;100.00;52656.00;5110037;27;20361;-66
2023/12/20 06:46:53;;;;;;;;;;;;;;;-144.99;100.00;52692.69;5117766;27;19937;-68
2023/12/20 06:49:20;;;;;;;;;;;;;;;-144.99;100.00;52700.84;5126175;27;19938;-67
2023/12/20 06:51:46;;;;;;;;;;;;;;;-144.99;100.00;52686.59;5122973;27;19973;-68
2023/12/20 06:54:13;;;;;;;;;;;;;;;-144.99;100.00;52713.09;5109797;27;19931;-68
2023/12/20 06:56:41;;;;;;;;;;;;;;;-144.99;100.00;52696.78;5121761;27;20003;-68
2023/12/20 06:59:07;;;;;;;;;;;;;;;-144.99;100.00;52688.63;5117893;27;19980;-67
2023/12/20 07:01:34;;;;;;;;;;;;;;;-144.99;100.00;52692.69;5127079;27;20019;-67
2023/12/20 07:04:00;;;;;;;;;;;;;;;-144.99;100.00;52651.94;5118068;27;19980;-68
2023/12/20 07:06:26;;;;;;;;;;;;;;;-144.99;100.00;52676.38;5113174;27;20376;-68
2023/12/20 07:08:53;;;;;;;;;;;;;;;-144.99;100.00;52676.38;5117816;27;20039;-68
2023/12/20 07:11:19;;;;;;;;;;;;;;;-144.99;100.00;52664.16;5122569;28;19928;-69
2023/12/20 07:13:47;;;;;;;;;;;;;;;-144.99;100.00;52688.63;5111399;28;20030;-68
2023/12/20 07:16:14;;;;;;;;;;;;;;;-144.99;100.00;52711.03;5120861;28;19927;-68
2023/12/20 07:18:40;;;;;;;;;;;;;;;-144.99;100.00;52717.16;5112692;28;19924;-67
2023/12/20 07:21:08;;;;;;;;;;;;;;;-144.99;100.00;52690.66;5117000;28;20006;-68
2023/12/20 07:23:34;;;;;;;;;;;;;;;-144.99;100.00;52700.84;5125397;28;19928;-67
2023/12/20 07:26:01;;;;;;;;;;;;;;;-144.99;100.00;52688.63;5119442;28;19955;-68
2023/12/20 07:28:27;;;;;;;;;;;;;;;-144.99;100.00;52709.00;5114896;28;19934;-68
2023/12/20 07:30:55;;;;;;;;;;;;;;;-144.99;100.00;52676.38;5115257;28;20019;-67
2023/12/20 07:33:21;;;;;;;;;;;;;;;-144.99;100.00;52692.69;5098600;28;19927;-68
2023/12/20 07:35:48;;;;;;;;;;;;;;;-144.99;100.00;52680.47;5111413;28;19928;-67
2023/12/20 07:38:14;;;;;;;;;;;;;;;-144.99;100.00;52682.50;5113051;27;20021;-67
2023/12/20 07:40:41;;;;;;;;;;;;;;;-144.99;100.00;52700.84;5124706;28;19928;-68
2023/12/20 07:43:07;;;;;;;;;;;;;;;-144.99;100.00;52696.78;5125676;28;20014;-68
2023/12/20 07:45:34;;;;;;;;;;;;;;;-144.99;100.00;52696.78;5102049;28;19923;-68
2023/12/20 07:48:02;;;;;;;;;;;;;;;-144.99;100.00;52688.63;5109558;28;19928;-67
2023/12/20 07:50:28;;;;;;;;;;;;;;;-144.99;100.00;52678.44;5121271;28;19928;-67
2023/12/20 07:52:55;;;;;;;;;;;;;;;-144.99;100.00;52709.00;5118769;28;20038;-67
2023/12/20 07:55:22;;;;;;;;;;;;;;;-144.99;100.00;52682.50;5116261;28;20341;-68
2023/12/20 07:57:49;;;;;;;;;;;;;;;-144.99;100.00;52704.94;5123802;27;19930;-68
2023/12/20 08:00:15;;;;;;;;;;;;;;;-144.99;100.00;52684.53;5121529;27;20141;-69
2023/12/20 08:02:42;;;;;;;;;;;;;;;-144.99;100.00;52660.09;5111231;28;19938;-69
2023/12/20 08:05:10;;;;;;;;;;;;;;;-144.99;100.00;52660.09;5111070;28;20453;-68
2023/12/20 08:07:36;;;;;;;;;;;;;;;-144.99;100.00;52668.22;5121810;27;19931;-69
2023/12/20 08:10:03;;;;;;;;;;;;;;;-144.99;100.00;52700.84;5127581;27;20040;-68
2023/12/20 08:12:30;;;;;;;;;;;;;;;-144.99;100.00;52717.16;5127568;27;20417;-67
2023/12/20 08:14:56;;;;;;;;;;;;;;;-144.99;100.00;52668.22;5128818;27;20254;-68
2023/12/20 08:17:23;;;;;;;;;;;;;;;-144.99;100.00;52680.47;5120163;27;19966;-68
2023/12/20 08:19:50;;;;;;;;;;;;;;;-144.99;100.00;52688.63;5129067;27;19927;-68
2023/12/20 08:22:18;;;;;;;;;;;;;;;-144.99;100.00;52668.22;5119870;27;19960;-67
2023/12/20 08:24:44;;;;;;;;;;;;;;;-144.99;100.00;52688.63;5113003;27;20067;-66
2023/12/20 08:27:11;;;;;;;;;;;;;;;-144.99;100.00;52660.09;5125659;27;19932;-68
2023/12/20 08:29:37;;;;;;;;;;;;;;;-144.99;100.00;52688.63;5116756;27;19938;-68
2023/12/20 08:32:04;;;;;;;;;;;;;;;-144.99;100.00;52688.63;5124172;27;19928;-67
2023/12/20 08:34:31;;;;;;;;;;;;;;;-144.99;100.00;52684.53;5117289;27;19989;-68
2023/12/20 08:36:57;;;;;;;;;;;;;;;-144.99;100.00;52700.84;5126698;27;19928;-69
2023/12/20 08:39:25;;;;;;;;;;;;;;;-144.99;100.00;52696.78;5123897;27;20321;-68
2023/12/20 08:41:52;;;;;;;;;;;;;;;-144.99;100.00;52733.47;5124510;27;20039;-68
2023/12/20 08:44:18;;;;;;;;;;;;;;;-144.99;100.00;52676.38;5114257;27;20335;-68
2023/12/20 08:46:45;;;;;;;;;;;;;;;-144.99;100.00;52700.84;5124419;27;19976;-68
2023/12/20 08:49:11;;;;;;;;;;;;;;;-144.99;100.00;52715.13;5119367;27;19935;-69
2023/12/20 08:51:40;;;;;;;;;;;;;;;-144.99;100.00;52670.28;5129696;27;19979;-67
2023/12/20 08:54:07;;;;;;;;;;;;;;;-144.99;100.00;52692.69;5120677;27;20263;-67
2023/12/20 08:56:35;;;;;;;;;;;;;;;-144.99;100.00;52672.31;5129727;27;19930;-68
2023/12/20 08:59:02;;;;;;;;;;;;;;;-144.99;100.00;52696.78;5115939;27;20018;-65
2023/12/20 09:01:28;;;;;;;;;;;;;;;-144.99;100.00;52682.50;5129667;27;20304;-67
2023/12/20 09:03:55;;;;;;;;;;;;;;;-144.99;100.00;52639.69;5109086;28;19940;-69
2023/12/20 09:06:21;;;;;;;;;;;;;;;-144.99;100.00;52660.09;5126589;27;20025;-67
2023/12/20 09:08:48;;;;;;;;;;;;;;;-144.99;100.00;52704.94;5123799;27;19955;-66
2023/12/20 09:11:15;;;;;;;;;;;;;;;-144.99;100.00;52680.47;5116107;27;20020;-67
2023/12/20 09:13:42;;;;;;;;;;;;;;;-144.99;100.00;52684.53;5123275;27;20339;-67
2023/12/20 09:16:09;;;;;;;;;;;;;;;-144.99;100.00;52709.00;5118968;27;20445;-68
2023/12/20 09:18:36;;;;;;;;;;;;;;;-144.99;100.00;52686.59;5121968;27;19931;-67
2023/12/20 09:21:02;;;;;;;;;;;;;;;-144.99;100.00;52717.16;5119634;27;20420;-68
2023/12/20 09:23:29;;;;;;;;;;;;;;;-144.99;100.00;52717.16;5119334;27;19959;-67
2023/12/20 09:25:55;;;;;;;;;;;;;;;-144.99;100.00;52688.63;5115441;27;20466;-67
2023/12/20 09:28:22;;;;;;;;;;;;;;;-144.99;100.00;52692.69;5127534;27;20271;-66
2023/12/20 09:30:49;;;;;;;;;;;;;;;-144.99;100.00;52688.63;5125506;27;20523;-67
2023/12/20 09:33:16;;;;;;;;;;;;;;;-144.99;100.00;52704.94;5116087;27;19928;-67
2023/12/20 09:35:43;;;;;;;;;;;;;;;-144.99;100.00;52696.78;5122558;27;20253;-68
2023/12/20 09:38:10;;;;;;;;;;;;;;;-144.99;100.00;52656.00;5126908;27;19927;-67
2023/12/20 09:40:37;;;;;;;;;;;;;;;-144.99;100.00;52688.63;5113384;27;20012;-67
2023/12/20 09:43:04;;;;;;;;;;;;;;;-144.99;100.00;52684.53;5122968;27;20471;-67
2023/12/20 09:45:31;;;;;;;;;;;;;;;-144.99;100.00;52676.38;5118279;27;19928;-67
2023/12/20 09:47:59;;;;;;;;;;;;;;;-144.99;100.00;52664.16;5125015;27;19979;-67
2023/12/20 09:50:27;;;;;;;;;;;;;;;-144.99;100.00;52688.63;5107736;27;19934;-66
2023/12/20 09:52:56;;;;;;;;;;;;;;;-144.99;100.00;52696.78;5123432;27;20420;-66
2023/12/20 09:55:23;;;;;;;;;;;;;;;-144.99;100.00;52680.47;5127163;27;20088;-67
2023/12/20 09:57:49;;;;;;;;;;;;;;;-144.99;100.00;52715.13;5126882;27;20078;-66
2023/12/20 10:00:17;;;;;;;;;;;;;;;-144.99;100.00;52700.84;5123692;27;20020;-66
2023/12/20 10:02:46;;;;;;;;;;;;;;;-144.99;100.00;52668.22;5111313;27;19953;-66
2023/12/20 10:05:16;;;;;;;;;;;;;;;-144.99;100.00;52664.16;5114776;27;20099;-67
2023/12/20 10:07:43;;;;;;;;;;;;;;;-144.99;100.00;52684.53;5123005;27;20033;-66
2023/12/20 10:10:10;;;;;;;;;;;;;;;-144.99;100.00;52680.47;5116319;27;19940;-67
2023/12/20 10:12:36;;;;;;;;;;;;;;;-144.99;100.00;52684.53;5118166;27;20295;-67
2023/12/20 10:15:03;;;;;;;;;;;;;;;-144.99;100.00;52688.63;5120233;27;19980;-67
2023/12/20 10:17:30;;;;;;;;;;;;;;;-144.99;100.00;52664.16;5115783;27;19988;-67
2023/12/20 10:19:56;;;;;;;;;;;;;;;-144.99;100.00;52692.69;5124812;27;20294;-67
2023/12/20 10:22:24;;;;;;;;;;;;;;;-144.99;100.00;52694.72;5126816;27;20369;-67
2023/12/20 10:24:50;;;;;;;;;;;;;;;-144.99;100.00;52700.84;5113487;27;20030;-67
2023/12/20 10:27:19;;;;;;;;;;;;;;;-144.99;100.00;52692.69;5118243;27;20053;-67
2023/12/20 10:29:45;;;;;;;;;;;;;;;-144.99;100.00;52696.78;5111894;27;20292;-68
2023/12/20 10:32:25;;;;;;;;;;;;;;;-144.99;100.00;52660.09;5111555;27;19955;-68
2023/12/20 10:34:51;;;;;;;;;;;;;;;-144.99;100.00;52715.13;5114758;27;19976;-67
2023/12/20 10:37:18;;;;;;;;;;;;;;;-144.99;100.00;52721.22;5114010;27;20392;-67
2023/12/20 10:39:50;;;;;;;;;;;;;;;-144.99;100.00;52656.00;5127228;27;19982;-68
2023/12/20 10:42:16;;;;;;;;;;;;;;;-144.99;100.00;52688.63;5126808;27;19934;-66
2023/12/20 10:44:43;;;;;;;;;;;;;;;-144.99;100.00;52684.53;5127173;27;19993;-67
2023/12/20 10:47:10;;;;;;;;;;;;;;;-144.99;100.00;52717.16;5120566;27;19924;-67
2023/12/20 10:49:38;;;;;;;;;;;;;;;-144.99;100.00;52668.22;5118523;27;19951;-67
2023/12/20 10:52:04;;;;;;;;;;;;;;;-144.99;100.00;52692.69;5125980;27;19978;-66
2023/12/20 10:54:31;;;;;;;;;;;;;;;-144.99;100.00;52684.53;5113290;28;19938;-66
2023/12/20 10:56:59;;;;;;;;;;;;;;;-144.99;100.00;52745.69;5114098;27;19934;-66
2023/12/20 10:59:28;;;;;;;;;;;;;;;-144.99;100.00;52684.53;5114166;27;20333;-65
2023/12/20 11:01:56;;;;;;;;;;;;;;;-144.99;100.00;52680.47;5119168;27;20050;-67
2023/12/20 11:04:26;;;;;;;;;;;;;;;-144.99;100.00;52680.47;5119231;27;19953;-67
2023/12/20 11:06:55;;;;;;;;;;;;;;;-144.99;100.00;52711.03;5115867;28;19967;-67
2023/12/20 11:09:25;;;;;;;;;;;;;;;-144.99;100.00;52715.13;5121068;27;19992;-67
2023/12/20 11:12:02;;;;;;;;;;;;;;;-144.99;100.00;52672.31;5106434;28;19924;-69
2023/12/20 11:14:32;;;;;;;;;;;;;;;-144.99;100.00;52692.69;5106346;28;19970;-68
2023/12/20 11:17:08;;;;;;;;;;;;;;;-144.99;100.00;52721.22;5115670;28;19931;-68
2023/12/20 11:19:37;;;;;;;;;;;;;;;-144.99;100.00;52668.22;5124190;28;20404;-68
2023/12/20 11:22:04;;;;;;;;;;;;;;;-144.99;100.00;52688.63;5119600;27;19928;-68
2023/12/20 11:24:32;;;;;;;;;;;;;;;-144.99;100.00;52709.00;5121889;28;20381;-68
2023/12/20 11:27:00;;;;;;;;;;;;;;;-144.99;100.00;52721.22;5125562;28;19927;-68
2023/12/20 11:29:30;;;;;;;;;;;;;;;-144.99;100.00;52725.31;5121506;28;19974;-68
2023/12/20 11:31:57;;;;;;;;;;;;;;;-144.99;100.00;52694.72;5116811;27;20424;-68
2023/12/20 11:34:27;;;;;;;;;;;;;;;-144.99;100.00;52576.50;5107566;28;19975;-67
2023/12/20 11:36:57;;;;;;;;;;;;;;;-144.99;100.00;52558.16;5114446;28;19927;-68
2023/12/20 11:39:24;;;;;;;;;;;;;;;-144.99;100.00;52627.47;5110592;28;19984;-67
2023/12/20 11:41:51;;;;;;;;;;;;;;;-144.99;100.00;52619.31;5124108;27;19923;-68
2023/12/20 11:44:20;;;;;;;;;;;;;;;-144.99;100.00;52709.00;5124050;27;20377;-67
2023/12/20 11:46:47;;;;;;;;;;;;;;;-144.99;100.00;52660.09;5125847;27;20014;-67
2023/12/20 11:49:13;;;;;;;;;;;;;;;-144.99;100.00;52676.38;5113264;27;19972;-66
2023/12/20 11:51:41;;;;;;;;;;;;;;;-144.99;100.00;52676.38;5127981;27;20010;-66
2023/12/20 11:54:08;;;;;;;;;;;;;;;-144.99;100.00;52623.38;5117158;27;19927;-68
2023/12/20 11:56:36;;;;;;;;;;;;;;;-144.99;100.00;52517.41;5114929;27;20422;-67
2023/12/20 11:59:03;;;;;;;;;;;;;;;-144.99;99.27;52586.69;5119195;27;19928;-67
2023/12/20 12:01:32;;;;;;;;;;;;;;;-144.99;95.10;52572.44;5121146;27;19927;-66
2023/12/20 12:04:04;;;;;;;;;;;;;;;-144.99;92.79;52570.38;5113100;27;19984;-67
2023/12/20 12:06:31;;;;;;;;;;;;;;;-144.99;91.60;52649.88;5124381;27;19979;-67
2023/12/20 12:08:57;;;;;;;;;;;;;;;-144.99;93.75;52627.47;5112249;27;19927;-67
2023/12/20 12:11:24;;;;;;;;;;;;;;;-144.99;94.20;52627.47;5121817;27;19972;-66
2023/12/20 12:13:51;;;;;;;;;;;;;;;-144.99;93.16;52627.47;5120712;27;19962;-67
2023/12/20 12:16:18;;;;;;;;;;;;;;;-144.99;90.65;52592.81;5122456;27;19928;-67